Time;durP1;ratioP1;P1;durP2;ratioP2;P2;SDS_P1;SDS_P2;PMS_P1;PMS_P2;Temp;Humidity;BMP_temperature;BMP_pressure;BME280_temperature;BME280_humidity;BME280_pressure;Samples;Min_cycle;Max_cycle;Signal;HPM_P1;HPM_P2
2021/06/30 00:01:37;;;;;;;0.85;0.85;;;19.60;99.90;;;;;;3626606;39;20783;-41
2021/06/30 00:04:17;;;;;;;1.75;1.13;;;19.50;99.90;;;;;;3636852;39;20601;-42
2021/06/30 00:06:57;;;;;;;1.40;1.30;;;19.60;99.90;;;;;;3616120;39;21100;-41
2021/06/30 00:09:36;;;;;;;2.10;1.85;;;19.70;99.90;;;;;;3634489;39;20600;-39
2021/06/30 00:12:16;;;;;;;2.42;2.20;;;19.40;99.90;;;;;;3636848;39;21003;-39
2021/06/30 00:14:56;;;;;;;1.73;1.63;;;19.30;99.90;;;;;;3636652;39;20685;-39
2021/06/30 00:17:36;;;;;;;2.90;2.15;;;19.30;99.90;;;;;;3627199;39;20680;-40
2021/06/30 00:20:16;;;;;;;2.17;1.98;;;19.30;99.90;;;;;;3657861;39;20613;-41
2021/06/30 00:22:55;;;;;;;2.10;1.90;;;19.40;99.90;;;;;;3596142;39;20603;-42
2021/06/30 00:25:35;;;;;;;5.38;1.77;;;19.20;99.90;;;;;;3616895;39;20806;-39
2021/06/30 00:28:15;;;;;;;2.55;2.03;;;19.10;99.90;;;;;;3637144;39;20677;-40
2021/06/30 00:30:55;;;;;;;2.20;1.95;;;19.00;99.90;;;;;;3637174;39;20685;-40
2021/06/30 00:33:34;;;;;;;3.33;1.88;;;19.00;99.90;;;;;;3637309;39;20601;-39
2021/06/30 00:36:14;;;;;;;3.72;1.88;;;19.30;99.90;;;;;;3627033;39;20993;-40
2021/06/30 00:38:54;;;;;;;2.60;1.60;;;19.10;99.90;;;;;;3638213;39;20628;-40
2021/06/30 00:41:34;;;;;;;1.55;1.45;;;19.10;99.90;;;;;;3637424;39;20867;-40
2021/06/30 00:44:14;;;;;;;1.98;1.60;;;19.20;99.90;;;;;;3637244;39;20585;-42
2021/06/30 00:46:53;;;;;;;2.10;1.85;;;19.00;99.90;;;;;;3637283;39;20933;-40
2021/06/30 00:49:33;;;;;;;1.75;1.60;;;19.00;99.90;;;;;;3637066;39;20617;-40
2021/06/30 00:52:13;;;;;;;4.60;2.17;;;18.70;99.90;;;;;;3574423;39;20683;-41
2021/06/30 00:54:53;;;;;;;4.05;1.95;;;18.70;99.90;;;;;;3637550;39;20678;-39
2021/06/30 00:57:33;;;;;;;5.20;1.73;;;18.70;99.90;;;;;;3637290;39;20585;-38
2021/06/30 01:00:14;;;;;;;2.28;2.08;;;18.60;99.90;;;;;;3626765;39;21196;-40
2021/06/30 01:02:54;;;;;;;2.47;2.28;;;18.70;99.90;;;;;;3627600;39;20836;-43
2021/06/30 01:05:34;;;;;;;2.13;1.90;;;18.60;99.90;;;;;;3616698;39;20603;-39
2021/06/30 01:08:13;;;;;;;3.80;2.10;;;18.70;99.90;;;;;;3637493;39;20838;-42
2021/06/30 01:10:53;;;;;;;8.35;2.67;;;18.70;99.90;;;;;;3637304;39;20616;-40
2021/06/30 01:13:40;;;;;;;3.47;2.20;;;18.70;99.90;;;;;;3637804;39;20331;-40
2021/06/30 01:16:19;;;;;;;4.20;2.67;;;18.90;99.90;;;;;;3637339;39;20632;-39
2021/06/30 01:18:59;;;;;;;3.92;2.38;;;18.80;99.90;;;;;;3616498;39;20624;-39
2021/06/30 01:21:39;;;;;;;4.00;2.03;;;18.60;99.90;;;;;;3626830;39;21001;-41
2021/06/30 01:24:19;;;;;;;3.28;2.65;;;18.50;99.90;;;;;;3647814;39;20587;-40
2021/06/30 01:26:59;;;;;;;3.90;2.20;;;18.90;99.90;;;;;;3658474;39;20606;-40
2021/06/30 01:29:38;;;;;;;2.60;2.17;;;19.00;99.90;;;;;;3637401;39;20609;-39
2021/06/30 01:32:18;;;;;;;2.67;2.17;;;18.90;99.90;;;;;;3640136;39;20593;-40
2021/06/30 01:34:58;;;;;;;4.05;2.20;;;18.90;99.90;;;;;;3642340;39;20979;-40
2021/06/30 01:37:46;;;;;;;4.40;2.97;;;18.80;99.90;;;;;;3597595;39;20616;-40
2021/06/30 01:40:26;;;;;;;2.92;2.28;;;18.70;99.90;;;;;;3637087;39;20612;-39
2021/06/30 01:43:06;;;;;;;5.65;2.75;;;18.50;99.90;;;;;;3637505;39;20604;-41
2021/06/30 01:45:46;;;;;;;2.00;1.90;;;18.60;99.90;;;;;;3637248;39;20597;-46
2021/06/30 01:48:25;;;;;;;8.05;2.75;;;18.70;99.90;;;;;;3637089;39;20608;-40
2021/06/30 01:51:05;;;;;;;3.83;2.25;;;19.10;99.90;;;;;;3637212;39;20596;-41
2021/06/30 01:53:45;;;;;;;2.72;2.22;;;19.00;99.90;;;;;;3596046;39;21092;-39
2021/06/30 01:56:25;;;;;;;3.47;2.67;;;18.90;99.90;;;;;;3637366;39;20597;-40
2021/06/30 01:59:06;;;;;;;2.70;2.50;;;18.60;99.90;;;;;;3636996;39;21012;-40
2021/06/30 02:01:46;;;;;;;4.03;2.20;;;18.40;99.90;;;;;;3658235;39;20929;-43
2021/06/30 02:04:25;;;;;;;2.47;2.28;;;18.30;99.90;;;;;;3637568;39;20612;-39
2021/06/30 02:07:06;;;;;;;3.08;2.28;;;18.40;99.90;;;;;;3637515;39;20609;-41
2021/06/30 02:09:45;;;;;;;4.45;2.50;;;18.30;99.90;;;;;;3616585;39;20620;-39
2021/06/30 02:12:25;;;;;;;3.53;3.05;;;18.30;99.90;;;;;;3637994;39;20601;-39
2021/06/30 02:15:08;;;;;;;6.55;3.35;;;18.20;99.90;;;;;;3637534;39;20609;-40
2021/06/30 02:17:49;;;;;;;7.20;3.83;;;18.10;99.90;;;;;;3637246;39;20682;-39
2021/06/30 02:20:30;;;;;;;6.10;3.38;;;17.80;99.90;;;;;;3636983;39;20616;-39
2021/06/30 02:23:10;;;;;;;9.25;4.32;;;17.70;99.90;;;;;;3627258;39;21091;-40
2021/06/30 02:25:50;;;;;;;5.47;3.78;;;17.90;99.90;;;;;;3637391;39;20589;-41
2021/06/30 02:28:30;;;;;;;8.40;3.72;;;18.20;99.90;;;;;;3668863;39;20966;-39
2021/06/30 02:31:11;;;;;;;4.35;3.03;;;18.50;99.90;;;;;;3627481;39;20693;-39
2021/06/30 02:33:50;;;;;;;5.97;2.58;;;18.70;99.90;;;;;;3637302;39;20632;-39
2021/06/30 02:36:29;;;;;;;5.57;2.72;;;18.60;99.90;;;;;;3657989;39;20682;-39
2021/06/30 02:39:09;;;;;;;7.00;3.08;;;18.80;99.90;;;;;;3626704;39;20614;-38
2021/06/30 02:41:49;;;;;;;3.55;2.55;;;18.70;99.90;;;;;;3647706;39;20994;-39
2021/06/30 02:44:29;;;;;;;3.65;2.40;;;18.70;99.90;;;;;;3658338;39;20597;-41
2021/06/30 02:47:09;;;;;;;7.68;2.88;;;19.00;99.90;;;;;;3627464;39;21114;-39
2021/06/30 02:49:48;;;;;;;4.20;2.92;;;18.90;99.90;;;;;;3616576;39;20608;-42
2021/06/30 02:52:28;;;;;;;3.05;2.75;;;18.60;99.90;;;;;;3637752;39;20938;-39
2021/06/30 02:55:10;;;;;;;3.33;2.95;;;18.60;99.90;;;;;;3628841;39;20587;-39
2021/06/30 02:57:50;;;;;;;4.97;3.80;;;18.60;99.90;;;;;;3640550;39;20577;-38
2021/06/30 03:00:30;;;;;;;3.65;2.40;;;18.40;99.90;;;;;;3634934;39;20593;-41
2021/06/30 03:03:09;;;;;;;5.53;3.50;;;18.40;99.90;;;;;;3650983;39;20705;-39
2021/06/30 03:05:49;;;;;;;3.10;2.80;;;18.30;99.90;;;;;;3639078;39;20600;-39
2021/06/30 03:08:29;;;;;;;8.45;4.07;;;18.30;99.90;;;;;;3619107;39;20600;-39
2021/06/30 03:11:08;;;;;;;12.05;3.00;;;18.40;99.90;;;;;;3639476;39;20605;-39
2021/06/30 03:13:48;;;;;;;3.50;3.13;;;18.50;99.90;;;;;;3638955;39;21096;-39
2021/06/30 03:16:28;;;;;;;3.92;3.58;;;18.50;99.90;;;;;;3616401;39;20592;-41
2021/06/30 03:19:08;;;;;;;3.38;3.03;;;18.30;99.90;;;;;;3638973;39;20628;-41
2021/06/30 03:21:48;;;;;;;7.93;3.90;;;18.30;99.90;;;;;;3639513;39;20608;-42
2021/06/30 03:24:27;;;;;;;7.55;4.90;;;18.20;99.90;;;;;;3637299;39;20954;-39
2021/06/30 03:27:07;;;;;;;10.30;5.25;;;18.30;99.90;;;;;;3627159;39;20680;-39
2021/06/30 03:29:47;;;;;;;9.05;6.03;;;18.30;99.90;;;;;;3626562;39;20697;-40
2021/06/30 03:32:27;;;;;;;10.90;5.47;;;18.10;99.90;;;;;;3627876;39;20864;-39
2021/06/30 03:35:10;;;;;;;6.00;5.50;;;18.00;99.90;;;;;;3616527;39;20604;-39
2021/06/30 03:37:50;;;;;;;7.32;6.65;;;17.80;99.90;;;;;;3627030;39;20590;-39
2021/06/30 03:40:30;;;;;;;6.78;6.18;;;17.80;99.90;;;;;;3616498;39;20616;-41
2021/06/30 03:43:09;;;;;;;8.07;7.38;;;17.90;99.90;;;;;;3617234;39;20600;-39
2021/06/30 03:45:49;;;;;;;8.80;7.90;;;18.00;99.90;;;;;;3616908;39;20608;-39
2021/06/30 03:48:29;;;;;;;10.95;10.05;;;18.30;99.90;;;;;;3647636;39;20587;-40
2021/06/30 03:51:09;;;;;;;13.75;10.88;;;18.50;99.90;;;;;;3637343;39;20685;-40
2021/06/30 03:53:49;;;;;;;12.18;10.95;;;18.70;99.90;;;;;;3637616;39;20596;-41
2021/06/30 03:56:28;;;;;;;11.05;9.98;;;18.80;99.90;;;;;;3627266;39;20586;-39
2021/06/30 03:59:08;;;;;;;12.32;10.65;;;18.60;99.90;;;;;;3626934;39;20614;-43
2021/06/30 04:01:50;;;;;;;11.77;10.75;;;18.40;99.90;;;;;;3617072;39;20999;-39
2021/06/30 04:04:29;;;;;;;12.45;11.07;;;18.40;99.90;;;;;;3658440;39;20669;-40
2021/06/30 04:07:09;;;;;;;13.88;12.15;;;18.30;99.90;;;;;;3616700;39;20596;-39
2021/06/30 04:09:49;;;;;;;14.27;12.88;;;18.20;99.90;;;;;;3637412;39;20621;-39
2021/06/30 04:12:29;;;;;;;18.25;16.35;;;18.10;99.90;;;;;;3627500;39;20691;-39
2021/06/30 04:15:10;;;;;;;20.23;17.30;;;18.10;99.90;;;;;;3637551;39;20585;-39
2021/06/30 04:17:50;;;;;;;19.77;14.43;;;18.00;99.90;;;;;;3616783;39;20670;-41
2021/06/30 04:20:30;;;;;;;17.90;15.00;;;17.90;99.90;;;;;;3623904;39;20870;-39
2021/06/30 04:23:10;;;;;;;23.15;17.70;;;17.90;99.90;;;;;;3637815;39;20604;-40
2021/06/30 04:25:49;;;;;;;19.48;17.55;;;17.90;99.90;;;;;;3637509;39;20940;-40
2021/06/30 04:28:29;;;;;;;23.27;19.58;;;17.90;99.90;;;;;;3637216;39;20604;-40
2021/06/30 04:31:09;;;;;;;25.02;22.35;;;18.00;99.90;;;;;;3626863;39;20685;-41
2021/06/30 04:33:49;;;;;;;26.98;22.50;;;18.10;99.90;;;;;;3637152;39;20605;-39
2021/06/30 04:36:28;;;;;;;25.00;21.35;;;17.90;99.90;;;;;;3616409;39;20608;-39
2021/06/30 04:39:08;;;;;;;25.27;21.55;;;18.00;99.90;;;;;;3626674;39;20699;-40
2021/06/30 04:41:48;;;;;;;25.55;22.38;;;18.00;99.90;;;;;;3637385;39;20604;-39
2021/06/30 04:44:28;;;;;;;29.63;23.70;;;18.00;99.90;;;;;;3637543;39;20597;-40
2021/06/30 04:47:08;;;;;;;28.70;24.45;;;18.00;99.90;;;;;;3638393;39;20657;-41
2021/06/30 04:49:47;;;;;;;29.02;22.25;;;18.10;99.90;;;;;;3637116;39;21011;-39
2021/06/30 04:52:27;;;;;;;32.33;24.63;;;18.20;99.90;;;;;;3637664;39;20601;-39
2021/06/30 04:55:08;;;;;;;31.60;25.02;;;18.20;99.90;;;;;;3637607;39;20940;-39
2021/06/30 04:57:48;;;;;;;30.98;22.17;;;18.20;99.90;;;;;;3596172;39;20595;-41
2021/06/30 05:00:28;;;;;;;24.83;20.45;;;18.20;99.90;;;;;;3637043;39;20636;-42
2021/06/30 05:03:08;;;;;;;25.95;21.63;;;18.20;99.90;;;;;;3627389;39;20831;-39
2021/06/30 05:05:48;;;;;;;23.55;21.15;;;18.20;99.90;;;;;;3606460;39;20598;-40
2021/06/30 05:08:28;;;;;;;25.42;22.50;;;18.30;99.90;;;;;;3637299;39;20589;-39
2021/06/30 05:11:08;;;;;;;22.77;20.00;;;18.40;99.90;;;;;;3636946;39;21003;-39
2021/06/30 05:13:47;;;;;;;23.75;18.73;;;18.40;99.90;;;;;;3638033;39;20593;-40
2021/06/30 05:16:27;;;;;;;21.02;18.92;;;18.10;99.90;;;;;;3627116;39;20687;-39
2021/06/30 05:19:08;;;;;;;21.60;19.60;;;18.00;99.90;;;;;;3616530;39;20628;-41
2021/06/30 05:21:48;;;;;;;23.73;20.90;;;17.90;99.90;;;;;;3626071;39;20602;-41
2021/06/30 05:24:28;;;;;;;23.08;19.92;;;18.00;99.90;;;;;;3626885;39;20680;-39
2021/06/30 05:27:08;;;;;;;24.48;20.95;;;18.00;99.90;;;;;;3637233;39;20605;-39
2021/06/30 05:29:48;;;;;;;22.25;19.98;;;18.00;99.90;;;;;;3643792;39;20623;-40
2021/06/30 05:32:28;;;;;;;24.50;21.35;;;18.00;99.90;;;;;;3616686;39;20612;-37
2021/06/30 05:35:08;;;;;;;22.55;20.30;;;18.00;99.90;;;;;;3640438;39;20615;-40
2021/06/30 05:37:47;;;;;;;24.63;22.05;;;18.00;99.90;;;;;;3627038;39;20855;-42
2021/06/30 05:40:27;;;;;;;24.10;20.23;;;18.10;99.90;;;;;;3636854;39;20597;-39
2021/06/30 05:43:07;;;;;;;20.88;18.63;;;18.00;99.90;;;;;;3626981;39;20843;-39
2021/06/30 05:45:47;;;;;;;20.38;18.45;;;18.00;99.90;;;;;;3627278;39;20685;-39
2021/06/30 05:48:26;;;;;;;21.58;19.25;;;18.10;99.90;;;;;;3637814;39;20581;-39
2021/06/30 05:51:06;;;;;;;18.73;16.92;;;17.90;99.90;;;;;;3637745;39;20593;-41
2021/06/30 05:53:46;;;;;;;19.35;17.45;;;18.00;99.90;;;;;;3637540;39;20608;-42
2021/06/30 05:56:26;;;;;;;21.10;17.08;;;18.10;99.90;;;;;;3626693;39;20599;-42
2021/06/30 05:59:06;;;;;;;19.65;16.63;;;18.00;99.90;;;;;;3668162;39;20935;-38
2021/06/30 06:01:45;;;;;;;17.02;15.43;;;18.00;99.90;;;;;;3606667;39;20594;-37
2021/06/30 06:04:12;;;;;;;19.08;15.68;;;18.10;99.90;;;;;;3606083;39;20245;-39
2021/06/30 06:06:52;;;;;;;18.95;17.05;;;18.30;99.90;;;;;;3637284;39;20589;-40
2021/06/30 06:09:33;;;;;;;17.15;15.45;;;18.30;99.90;;;;;;3632086;39;20614;-41
2021/06/30 06:12:12;;;;;;;18.35;16.02;;;18.20;99.90;;;;;;3637327;39;20952;-39
2021/06/30 06:14:52;;;;;;;15.50;14.00;;;18.00;99.90;;;;;;3637494;39;20613;-39
2021/06/30 06:17:32;;;;;;;16.05;14.45;;;18.00;99.90;;;;;;3659857;22;20934;-77
2021/06/30 06:20:13;;;;;;;16.65;14.55;;;17.80;99.90;;;;;;3634764;39;20624;-39
2021/06/30 06:22:53;;;;;;;16.38;13.60;;;17.80;99.90;;;;;;3573689;40;20615;-40
2021/06/30 06:25:33;;;;;;;14.63;12.95;;;17.70;99.90;;;;;;3658032;39;20642;-39
2021/06/30 06:28:13;;;;;;;17.23;14.68;;;17.60;99.90;;;;;;3658978;39;20590;-39
2021/06/30 06:30:52;;;;;;;17.65;13.48;;;17.60;99.90;;;;;;3627193;39;20694;-42
2021/06/30 06:33:32;;;;;;;13.77;12.48;;;17.60;99.90;;;;;;3638225;39;20597;-39
2021/06/30 06:36:14;;;;;;;15.10;13.15;;;17.50;99.90;;;;;;3626643;39;20675;-40
2021/06/30 06:38:53;;;;;;;14.40;12.73;;;17.50;99.90;;;;;;3635894;39;20609;-40
2021/06/30 06:41:33;;;;;;;14.40;12.90;;;17.50;99.90;;;;;;3638987;39;20937;-40
2021/06/30 06:44:13;;;;;;;13.27;11.85;;;17.40;99.90;;;;;;3637980;39;20609;-37
2021/06/30 06:46:52;;;;;;;13.80;12.43;;;17.40;99.90;;;;;;3637782;39;20596;-38
2021/06/30 06:49:33;;;;;;;12.07;10.40;;;17.30;99.90;;;;;;3633008;39;21025;-40
2021/06/30 06:52:12;;;;;;;10.73;9.63;;;17.30;99.90;;;;;;3637639;39;20585;-38
2021/06/30 06:54:52;;;;;;;12.95;11.02;;;17.20;99.90;;;;;;3617369;39;20600;-38
2021/06/30 06:57:32;;;;;;;12.70;11.07;;;17.20;99.90;;;;;;3627146;39;20606;-41
2021/06/30 07:00:13;;;;;;;13.00;10.57;;;17.30;99.90;;;;;;3614239;39;21111;-38
2021/06/30 07:02:53;;;;;;;11.18;10.07;;;17.40;99.90;;;;;;3626740;39;20595;-40
2021/06/30 07:05:33;;;;;;;14.50;8.77;;;17.40;99.90;;;;;;3635849;39;20605;-38
2021/06/30 07:08:13;;;;;;;11.10;8.77;;;17.60;99.90;;;;;;3637396;39;20601;-40
2021/06/30 07:10:52;;;;;;;10.20;8.40;;;17.60;99.90;;;;;;3646977;39;20727;-40
2021/06/30 07:13:32;;;;;;;12.35;10.13;;;17.60;99.90;;;;;;3620296;39;20600;-38
2021/06/30 07:16:12;;;;;;;10.80;9.77;;;17.50;99.90;;;;;;3637184;39;21007;-40
2021/06/30 07:18:52;;;;;;;9.95;8.95;;;17.60;99.90;;;;;;3626649;39;21150;-41
2021/06/30 07:21:33;;;;;;;9.98;8.43;;;17.70;99.90;;;;;;3627292;39;20671;-40
2021/06/30 07:24:13;;;;;;;9.98;8.75;;;17.70;99.90;;;;;;3616866;39;20677;-40
2021/06/30 07:26:53;;;;;;;9.23;7.90;;;17.70;99.90;;;;;;3637212;39;20592;-40
2021/06/30 07:29:33;;;;;;;10.35;9.35;;;17.60;99.90;;;;;;3637539;39;20621;-40
2021/06/30 07:32:13;;;;;;;10.38;9.38;;;17.50;99.90;;;;;;3638245;39;21000;-39
2021/06/30 07:34:52;;;;;;;10.43;9.20;;;17.40;99.90;;;;;;3639007;39;20693;-40
2021/06/30 07:37:32;;;;;;;10.98;9.77;;;17.80;99.90;;;;;;3647819;39;20848;-40
2021/06/30 07:40:12;;;;;;;10.52;9.57;;;17.60;99.90;;;;;;3626793;39;20618;-39
2021/06/30 07:42:52;;;;;;;11.35;9.75;;;17.60;99.90;;;;;;3637204;39;20715;-40
2021/06/30 07:45:32;;;;;;;12.27;11.18;;;17.80;99.90;;;;;;3616792;39;20947;-40
2021/06/30 07:48:11;;;;;;;13.30;11.15;;;17.90;99.90;;;;;;3626336;39;20638;-40
2021/06/30 07:50:51;;;;;;;11.73;10.63;;;17.90;99.90;;;;;;3626899;39;20610;-41
2021/06/30 07:53:31;;;;;;;11.82;10.73;;;17.70;99.90;;;;;;3622477;39;20600;-41
2021/06/30 07:56:11;;;;;;;10.35;9.35;;;17.80;99.90;;;;;;3637344;39;20624;-39
2021/06/30 07:58:50;;;;;;;12.18;11.02;;;17.70;99.90;;;;;;3636475;39;20608;-39
2021/06/30 08:01:31;;;;;;;11.30;10.13;;;17.90;99.90;;;;;;3625657;39;20602;-39
2021/06/30 08:04:10;;;;;;;10.40;9.30;;;18.00;99.90;;;;;;3626408;39;20699;-38
2021/06/30 08:06:50;;;;;;;11.57;9.70;;;18.10;99.90;;;;;;3640979;39;20605;-40
2021/06/30 08:09:31;;;;;;;10.63;9.73;;;18.20;99.90;;;;;;3633069;39;20692;-40
2021/06/30 08:12:11;;;;;;;9.10;8.15;;;18.20;99.90;;;;;;3625436;39;20608;-41
2021/06/30 08:14:51;;;;;;;12.05;8.13;;;18.30;99.90;;;;;;3637249;39;20601;-37
2021/06/30 08:17:31;;;;;;;7.72;7.13;;;18.40;99.90;;;;;;3647584;39;20607;-39
2021/06/30 08:20:22;;;;;;;9.60;8.70;;;18.40;99.90;;;;;;3608233;39;20604;-41
2021/06/30 08:23:02;;;;;;;11.00;9.82;;;18.30;99.90;;;;;;3638016;39;20600;-40
2021/06/30 08:25:45;;;;;;;9.50;8.30;;;18.40;99.90;;;;;;3616125;39;20671;-42
2021/06/30 08:28:26;;;;;;;8.52;7.82;;;18.60;99.90;;;;;;3640019;39;20884;-40
2021/06/30 08:31:06;;;;;;;8.30;6.70;;;18.40;99.90;;;;;;3638001;39;20612;-40
2021/06/30 08:33:46;;;;;;;6.90;6.22;;;18.40;99.90;;;;;;3626676;39;20682;-42
2021/06/30 08:36:26;;;;;;;6.72;6.07;;;18.30;99.90;;;;;;3636622;39;20605;-40
2021/06/30 08:39:08;;;;;;;7.15;6.50;;;18.20;99.90;;;;;;3596041;39;20716;-40
2021/06/30 08:41:47;;;;;;;6.00;5.50;;;18.30;99.90;;;;;;3654731;39;21001;-38
2021/06/30 08:44:27;;;;;;;6.10;5.35;;;18.50;99.90;;;;;;3616745;39;20604;-39
2021/06/30 08:47:08;;;;;;;7.35;6.57;;;18.40;99.90;;;;;;3638937;39;20609;-39
2021/06/30 08:49:49;;;;;;;6.88;6.10;;;18.40;99.90;;;;;;3637095;39;20624;-39
2021/06/30 08:52:29;;;;;;;6.93;6.20;;;18.30;99.90;;;;;;3626037;39;20631;-40
2021/06/30 08:55:10;;;;;;;8.90;6.88;;;18.10;99.90;;;;;;3616319;39;20600;-40
2021/06/30 08:57:50;;;;;;;7.82;6.28;;;18.30;99.90;;;;;;3657534;39;20582;-40
2021/06/30 09:00:29;;;;;;;7.40;6.65;;;18.30;99.90;;;;;;3626211;39;21027;-42
2021/06/30 09:03:14;;;;;;;11.60;7.53;;;18.40;99.90;;;;;;3638686;39;20617;-37
2021/06/30 09:09:09;;;;;;;8.10;7.40;;;18.70;99.90;;;;;;3628511;39;20628;-39
2021/06/30 09:11:55;;;;;;;7.78;7.07;;;18.60;99.90;;;;;;3626641;39;20683;-38
2021/06/30 09:14:37;;;;;;;8.57;7.15;;;18.30;99.90;;;;;;3637469;39;20612;-40
2021/06/30 09:17:20;;;;;;;8.98;8.10;;;18.30;99.90;;;;;;3596288;39;20681;-39
2021/06/30 09:20:04;;;;;;;8.95;8.18;;;18.20;99.90;;;;;;3631109;39;20610;-40
2021/06/30 09:22:47;;;;;;;8.15;7.45;;;18.20;99.90;;;;;;3637492;39;20596;-40
2021/06/30 09:25:32;;;;;;;8.65;7.85;;;18.30;99.90;;;;;;3627245;39;20668;-41
2021/06/30 09:28:19;;;;;;;8.18;7.38;;;18.40;99.90;;;;;;3628862;39;20679;-39
2021/06/30 09:31:05;;;;;;;8.68;7.97;;;18.50;99.90;;;;;;3635858;39;21003;-41
2021/06/30 09:33:50;;;;;;;8.10;7.38;;;18.50;99.90;;;;;;3625298;39;20861;-41
2021/06/30 09:36:32;;;;;;;9.57;8.23;;;18.60;99.90;;;;;;3627345;39;20676;-39
2021/06/30 09:39:13;;;;;;;9.00;8.20;;;18.50;99.90;;;;;;3634289;39;20614;-40
2021/06/30 09:42:03;;;;;;;9.80;8.27;;;18.30;99.90;;;;;;3658119;39;20685;-37
2021/06/30 09:44:44;;;;;;;9.48;8.57;;;18.30;99.90;;;;;;3637615;39;20577;-40
2021/06/30 09:47:23;;;;;;;9.77;8.68;;;18.40;99.90;;;;;;3638197;39;20604;-40
2021/06/30 09:50:03;;;;;;;8.43;7.53;;;18.70;99.90;;;;;;3626585;39;21109;-40
2021/06/30 09:52:44;;;;;;;9.00;8.20;;;18.70;99.90;;;;;;3615808;39;20612;-40
2021/06/30 09:55:25;;;;;;;10.20;9.40;;;18.80;99.90;;;;;;3653191;39;20702;-41
2021/06/30 09:58:05;;;;;;;10.02;9.20;;;18.90;99.90;;;;;;3641920;39;20675;-40
2021/06/30 10:00:45;;;;;;;10.38;9.38;;;18.70;99.90;;;;;;3639510;39;20618;-39
2021/06/30 10:03:40;;;;;;;9.60;8.70;;;18.70;99.90;;;;;;3637665;39;20613;-40
2021/06/30 10:06:30;;;;;;;11.07;9.30;;;18.70;99.90;;;;;;3630176;39;20973;-39
2021/06/30 10:09:15;;;;;;;10.63;9.60;;;18.60;99.90;;;;;;3657412;39;21106;-39
2021/06/30 10:12:01;;;;;;;13.52;12.13;;;18.60;99.90;;;;;;3640892;39;20666;-43
2021/06/30 10:14:43;;;;;;;12.10;10.90;;;18.80;99.90;;;;;;3627455;39;20594;-41
2021/06/30 10:17:24;;;;;;;12.30;11.20;;;18.80;99.90;;;;;;3617026;39;20692;-39
2021/06/30 10:20:05;;;;;;;11.80;10.80;;;18.80;99.90;;;;;;3657420;39;20614;-39
2021/06/30 10:22:46;;;;;;;12.50;11.32;;;18.80;99.90;;;;;;3645233;39;21136;-40
2021/06/30 10:25:24;;;;;;;12.90;11.13;;;18.50;99.90;;;;;;3607765;39;1223226;-40
2021/06/30 10:28:04;;;;;;;13.82;12.52;;;18.30;99.90;;;;;;3627193;39;20689;-41
2021/06/30 10:30:43;;;;;;;12.10;11.02;;;18.30;99.90;;;;;;3637272;39;20612;-40
2021/06/30 10:33:32;;;;;;;13.95;12.70;;;18.30;99.90;;;;;;3611767;39;20606;-40
2021/06/30 10:36:11;;;;;;;14.07;12.88;;;18.20;99.90;;;;;;3626468;39;20606;-41
2021/06/30 10:38:54;;;;;;;13.15;11.90;;;18.20;99.90;;;;;;3639415;39;20607;-42
2021/06/30 10:41:42;;;;;;;13.77;12.48;;;18.30;99.90;;;;;;3637595;39;20608;-42
2021/06/30 10:44:23;;;;;;;12.52;11.30;;;18.50;99.90;;;;;;3616265;39;20669;-40
2021/06/30 10:47:31;;;;;;;13.05;11.85;;;18.60;99.90;;;;;;3629396;39;20602;-40
2021/06/30 10:50:30;;;;;;;13.85;12.48;;;18.90;99.90;;;;;;3637401;39;20620;-41
2021/06/30 10:53:39;;;;;;;11.77;10.63;;;18.80;99.90;;;;;;3637586;39;20597;-40
2021/06/30 10:56:31;;;;;;;11.25;10.15;;;18.70;99.90;;;;;;3626825;39;20860;-40
2021/06/30 10:59:11;;;;;;;10.85;9.88;;;18.50;99.90;;;;;;3614963;39;20606;-40
2021/06/30 11:02:16;;;;;;;11.95;10.85;;;18.50;99.90;;;;;;3637268;39;20945;-40
2021/06/30 11:04:57;;;;;;;11.32;10.43;;;18.60;99.90;;;;;;3637737;39;20593;-40
2021/06/30 11:07:37;;;;;;;10.70;9.18;;;18.60;99.90;;;;;;3627351;39;20957;-40
2021/06/30 11:10:51;;;;;;;10.95;10.00;;;18.40;99.90;;;;;;3626343;39;20626;-44
2021/06/30 11:13:54;;;;;;;12.32;11.30;;;18.60;99.90;;;;;;3599618;39;20614;-40
2021/06/30 11:16:53;;;;;;;9.65;8.75;;;18.50;99.90;;;;;;3637915;39;20608;-40
2021/06/30 11:19:47;;;;;;;10.77;9.85;;;18.50;99.90;;;;;;3637116;39;20628;-40
2021/06/30 11:22:33;;;;;;;10.02;9.15;;;18.70;99.90;;;;;;3624067;39;20671;-41
2021/06/30 11:25:24;;;;;;;10.60;9.57;;;18.80;99.90;;;;;;3626916;39;20679;-41
2021/06/30 11:28:04;;;;;;;9.85;9.02;;;18.70;99.90;;;;;;3637129;39;20673;-40
2021/06/30 11:30:44;;;;;;;10.77;9.73;;;18.80;99.90;;;;;;3626569;39;21108;-41
2021/06/30 11:33:24;;;;;;;10.35;9.43;;;18.70;99.90;;;;;;3627002;39;20591;-40
2021/06/30 11:36:04;;;;;;;11.95;10.75;;;18.50;99.90;;;;;;3637367;39;20693;-41
2021/06/30 11:38:43;;;;;;;15.98;14.57;;;18.70;99.90;;;;;;3653464;39;20916;-42
2021/06/30 11:41:26;;;;;;;12.63;11.20;;;18.70;99.90;;;;;;3637368;39;20608;-40
2021/06/30 11:44:10;;;;;;;11.13;10.15;;;18.90;99.90;;;;;;3616724;39;21002;-40
2021/06/30 11:46:51;;;;;;;11.88;10.75;;;18.90;99.90;;;;;;3648314;39;20965;-40
2021/06/30 11:49:31;;;;;;;12.32;11.18;;;18.90;99.90;;;;;;3637234;39;20931;-40
2021/06/30 11:52:15;;;;;;;12.55;11.45;;;18.90;99.90;;;;;;3596398;39;20698;-41
2021/06/30 11:54:56;;;;;;;13.52;12.15;;;19.00;99.90;;;;;;3627569;39;21070;-40
2021/06/30 11:57:50;;;;;;;12.93;10.50;;;19.10;99.90;;;;;;3637821;39;20729;-40
2021/06/30 12:00:31;;;;;;;12.13;11.05;;;19.20;99.90;;;;;;3626699;39;20707;-40
2021/06/30 12:03:10;;;;;;;13.27;11.98;;;19.20;99.90;;;;;;3635663;39;20940;-42
2021/06/30 12:05:50;;;;;;;14.38;12.90;;;19.20;99.90;;;;;;3646512;39;20671;-40
2021/06/30 12:08:28;;;;;;;13.45;12.25;;;19.20;99.90;;;;;;3602637;39;1253892;-40
2021/06/30 12:11:08;;;;;;;13.73;12.43;;;19.10;99.90;;;;;;3651876;39;20607;-42
2021/06/30 12:14:10;;;;;;;15.05;13.65;;;19.20;99.90;;;;;;3637660;39;20604;-41
2021/06/30 12:16:54;;;;;;;13.25;12.10;;;19.10;99.90;;;;;;3627177;39;20606;-40
2021/06/30 12:19:38;;;;;;;16.05;14.65;;;19.30;99.90;;;;;;3634971;39;21383;-40
2021/06/30 12:22:20;;;;;;;14.40;13.07;;;19.30;99.90;;;;;;3636557;39;20597;-40
2021/06/30 12:25:01;;;;;;;16.63;15.07;;;19.40;99.90;;;;;;3636348;39;21036;-40
2021/06/30 12:27:43;;;;;;;16.48;14.80;;;19.20;99.90;;;;;;3635627;39;20674;-42
2021/06/30 12:30:24;;;;;;;16.27;14.70;;;19.20;99.90;;;;;;3631797;39;20620;-40
2021/06/30 12:33:09;;;;;;;15.57;14.20;;;19.30;99.90;;;;;;3637579;39;20681;-39
2021/06/30 12:35:50;;;;;;;15.63;14.18;;;18.90;99.90;;;;;;3638013;39;21064;-42
2021/06/30 12:38:31;;;;;;;15.93;14.52;;;19.00;99.90;;;;;;3626692;39;20944;-43
2021/06/30 12:41:11;;;;;;;14.95;13.57;;;19.20;99.90;;;;;;3631724;39;20614;-40
2021/06/30 12:43:59;;;;;;;15.68;14.23;;;19.30;99.90;;;;;;3610363;39;20691;-40
2021/06/30 12:46:38;;;;;;;18.70;16.83;;;19.40;99.90;;;;;;3630977;39;20674;-40
2021/06/30 12:49:18;;;;;;;16.35;14.85;;;19.50;99.90;;;;;;3626468;39;20976;-40
2021/06/30 12:51:58;;;;;;;15.88;14.35;;;19.70;99.90;;;;;;3625642;39;20610;-40
2021/06/30 12:54:57;;;;;;;18.45;16.67;;;19.80;99.90;;;;;;3636606;39;21004;-39
2021/06/30 12:58:02;;;;;;;17.60;15.52;;;19.60;99.90;;;;;;3634620;39;20577;-40
2021/06/30 13:00:55;;;;;;;21.88;15.15;;;19.60;99.90;;;;;;3633523;39;20653;-40
2021/06/30 13:03:44;;;;;;;16.95;15.45;;;19.40;99.90;;;;;;3626475;39;20607;-40
2021/06/30 13:06:25;;;;;;;16.17;14.82;;;19.80;99.90;;;;;;3636623;39;20597;-40
2021/06/30 13:09:09;;;;;;;14.63;13.32;;;20.10;99.90;;;;;;3614794;39;20627;-45
2021/06/30 13:11:52;;;;;;;15.13;13.82;;;20.20;99.90;;;;;;3625243;39;21005;-41
2021/06/30 13:14:37;;;;;;;15.80;14.40;;;20.20;99.90;;;;;;3629827;39;20606;-41
2021/06/30 13:17:24;;;;;;;17.73;15.93;;;20.10;99.90;;;;;;3636597;39;20593;-41
2021/06/30 13:20:13;;;;;;;18.42;16.63;;;20.50;99.90;;;;;;3637069;39;20692;-40
2021/06/30 13:22:51;;;;;;;20.08;18.35;;;20.60;99.90;;;;;;3575104;39;21017;-40
2021/06/30 13:25:44;;;;;;;20.63;18.63;;;21.10;99.90;;;;;;3636908;39;20685;-40
2021/06/30 13:28:45;;;;;;;18.27;16.65;;;21.10;99.90;;;;;;3626808;39;20610;-42
2021/06/30 13:34:24;;;;;;;23.13;20.77;;;21.00;99.90;;;;;;3626881;39;20578;-40
2021/06/30 13:37:06;;;;;;;19.08;17.38;;;21.00;99.90;;;;;;3636840;39;20609;-39
2021/06/30 13:39:45;;;;;;;19.33;17.35;;;21.00;99.90;;;;;;3621023;39;20703;-40
2021/06/30 13:42:24;;;;;;;19.55;17.88;;;20.80;99.90;;;;;;3626501;39;20695;-40
2021/06/30 13:45:06;;;;;;;19.15;17.25;;;20.70;99.90;;;;;;3626260;39;20675;-42
2021/06/30 13:47:46;;;;;;;21.10;19.10;;;20.90;99.90;;;;;;3627105;39;20684;-40
2021/06/30 13:50:26;;;;;;;18.80;17.05;;;21.10;99.90;;;;;;3626757;39;20610;-40
2021/06/30 13:53:05;;;;;;;22.27;20.15;;;20.90;99.90;;;;;;3626940;39;21084;-40
2021/06/30 13:56:01;;;;;;;20.23;18.42;;;20.70;99.90;;;;;;3637366;39;20639;-40